createdAt,value
2022-12-13T00:04:40.262Z,71.32
2022-12-13T00:09:43.734Z,71.19
2022-12-13T00:14:45.999Z,71.41
2022-12-13T00:19:49.034Z,70.96
2022-12-13T00:24:51.531Z,70.91
2022-12-13T00:29:53.787Z,71.01
2022-12-13T00:34:56.012Z,71.20
2022-12-13T00:39:58.387Z,71.03
2022-12-13T00:45:00.664Z,71.16
2022-12-13T00:50:04.248Z,71.14
2022-12-13T00:55:07.267Z,70.77
2022-12-13T01:00:10.454Z,70.74
2022-12-13T01:05:24.036Z,70.08
2022-12-13T01:10:37.738Z,69.83
2022-12-13T01:15:47.837Z,69.45
2022-12-13T01:20:59.728Z,69.51
2022-12-13T01:26:07.066Z,68.88
2022-12-13T01:31:11.940Z,68.52
2022-12-13T01:36:17.249Z,68.11
2022-12-13T01:41:27.247Z,67.34
2022-12-13T01:46:31.918Z,67.13
2022-12-13T01:51:44.981Z,65.91
2022-12-13T01:56:53.830Z,65.58
2022-12-13T02:02:03.784Z,64.42
2022-12-13T02:07:07.587Z,63.60
2022-12-13T02:12:10.068Z,63.19
2022-12-13T02:17:49.549Z,63.65
2022-12-13T02:23:36.026Z,63.86
2022-12-13T02:28:47.423Z,63.76
2022-12-13T02:34:17.506Z,63.88
2022-12-13T02:39:30.389Z,64.00
2022-12-13T02:44:42.590Z,64.88
2022-12-13T02:49:49.633Z,64.65
2022-12-13T02:54:53.984Z,64.59
2022-12-13T02:59:58.838Z,64.69
2022-12-13T03:05:57.743Z,65.10
2022-12-13T03:11:14.260Z,64.93
2022-12-13T03:16:26.081Z,64.97
2022-12-13T03:21:28.929Z,64.97
2022-12-13T03:26:31.382Z,64.70
2022-12-13T03:31:33.949Z,63.51
2022-12-13T03:36:36.378Z,62.26
2022-12-13T03:41:38.820Z,60.55
2022-12-13T03:46:41.264Z,59.72
2022-12-13T03:51:43.699Z,59.68
2022-12-13T03:56:46.053Z,58.87
2022-12-13T04:01:49.037Z,58.54
2022-12-13T04:06:51.363Z,58.50
2022-12-13T04:12:12.319Z,57.52
2022-12-13T04:17:14.715Z,57.15
2022-12-13T04:22:23.269Z,56.88
2022-12-13T04:27:26.887Z,57.20
2022-12-13T04:32:29.262Z,58.37
2022-12-13T04:37:31.929Z,58.72
2022-12-13T04:42:34.620Z,59.24
2022-12-13T04:47:36.892Z,59.45
2022-12-13T04:52:40.086Z,59.73
2022-12-13T04:57:42.599Z,60.46
2022-12-13T05:02:44.984Z,60.88
2022-12-13T05:07:47.264Z,61.61
2022-12-13T05:12:49.586Z,62.09
2022-12-13T05:17:51.978Z,62.18
2022-12-13T05:22:59.331Z,62.80
2022-12-13T05:28:09.149Z,63.14
2022-12-13T05:33:25.008Z,63.35
2022-12-13T05:38:27.446Z,63.73
2022-12-13T05:43:43.156Z,63.84
2022-12-13T05:48:46.038Z,64.27
2022-12-13T05:53:53.073Z,65.00
2022-12-13T05:58:55.894Z,66.06
2022-12-13T06:03:58.290Z,65.27
2022-12-13T06:09:00.812Z,65.79
2022-12-13T06:14:03.100Z,66.18
2022-12-13T06:19:05.522Z,66.91
2022-12-13T06:24:09.226Z,66.32
2022-12-13T06:29:11.719Z,66.51
2022-12-13T06:34:15.465Z,66.12
2022-12-13T06:39:18.188Z,66.98
2022-12-13T06:44:20.620Z,67.08
2022-12-13T06:49:22.827Z,66.79
2022-12-13T06:54:25.142Z,66.81
2022-12-13T06:59:27.526Z,67.12
2022-12-13T07:04:31.103Z,67.06
2022-12-13T07:09:33.953Z,67.20
2022-12-13T07:14:40.713Z,67.86
2022-12-13T07:19:44.306Z,67.62
2022-12-13T07:24:46.890Z,67.88
2022-12-13T07:29:49.417Z,67.96
2022-12-13T07:34:51.722Z,67.91
2022-12-13T07:40:02.651Z,67.47
2022-12-13T07:45:06.413Z,66.98
2022-12-13T07:50:13.842Z,67.64
2022-12-13T07:55:33.018Z,67.52
2022-12-13T08:00:40.902Z,66.88
2022-12-13T08:05:48.636Z,67.91
2022-12-13T08:10:51.135Z,67.58
2022-12-13T08:15:59.578Z,67.06
2022-12-13T08:21:23.964Z,67.36
2022-12-13T08:26:29.348Z,68.31
2022-12-13T08:31:34.061Z,68.14
2022-12-13T08:36:36.442Z,68.33
2022-12-13T08:41:39.425Z,68.59
2022-12-13T08:46:42.046Z,68.59
2022-12-13T08:51:44.306Z,68.65
2022-12-13T08:56:46.486Z,69.02
2022-12-13T09:01:53.726Z,68.98
2022-12-13T09:06:56.868Z,68.97
2022-12-13T09:12:11.091Z,69.05
2022-12-13T09:17:26.418Z,68.83
2022-12-13T09:22:33.553Z,68.54
2022-12-13T09:27:39.980Z,68.71
2022-12-13T09:32:43.943Z,68.34
2022-12-13T09:37:46.450Z,67.91
2022-12-13T09:43:08.280Z,67.48
2022-12-13T09:48:22.319Z,67.47
2022-12-13T09:53:25.865Z,66.89
2022-12-13T09:58:37.641Z,66.69
2022-12-13T10:03:44.660Z,65.94
2022-12-13T10:08:59.256Z,65.40
2022-12-13T10:14:22.293Z,66.02
2022-12-13T10:19:41.400Z,65.67
2022-12-13T10:24:54.716Z,65.44
2022-12-13T10:30:01.282Z,65.26
2022-12-13T10:35:38.427Z,64.95
2022-12-13T10:40:45.764Z,64.67
2022-12-13T10:46:00.003Z,64.49
2022-12-13T10:51:09.560Z,64.39
2022-12-13T10:56:12.388Z,64.53
2022-12-13T11:01:22.541Z,64.30
2022-12-13T11:06:27.137Z,64.24
2022-12-13T11:11:30.939Z,63.66
2022-12-13T11:16:38.023Z,63.69
2022-12-13T11:21:40.297Z,62.86
2022-12-13T11:26:53.928Z,63.28
2022-12-13T11:32:02.995Z,63.10
2022-12-13T11:37:05.266Z,63.01
2022-12-13T11:42:25.822Z,62.57
2022-12-13T11:47:36.395Z,61.86
2022-12-13T11:52:50.254Z,62.09
2022-12-13T11:59:01.127Z,61.89
2022-12-13T12:03:59.604Z,61.91
2022-12-13T12:09:05.101Z,61.55
2022-12-13T12:14:36.889Z,61.48
2022-12-13T12:19:41.432Z,61.62
2022-12-13T12:24:52.238Z,61.64
2022-12-13T12:30:08.367Z,61.62
2022-12-13T12:35:45.799Z,61.66
2022-12-13T12:41:16.025Z,61.46
2022-12-13T12:47:01.573Z,60.87
2022-12-13T12:52:21.898Z,60.98
2022-12-13T12:57:51.315Z,60.33
2022-12-13T13:02:56.313Z,59.71
2022-12-13T13:08:14.782Z,58.56
2022-12-13T13:13:35.711Z,57.47
2022-12-13T13:18:49.883Z,56.00
2022-12-13T13:24:10.816Z,55.49
2022-12-13T13:29:27.767Z,54.80
2022-12-13T13:34:43.385Z,53.30
2022-12-13T13:40:02.033Z,53.43
2022-12-13T13:45:21.054Z,53.28
2022-12-13T13:50:46.558Z,53.32
2022-12-13T13:56:16.746Z,53.16
2022-12-13T14:01:31.222Z,52.60
2022-12-13T14:06:51.714Z,51.51
2022-12-13T14:12:30.387Z,51.40
2022-12-13T14:17:54.253Z,51.03
2022-12-13T14:23:21.480Z,52.25
2022-12-13T14:28:45.029Z,52.80
2022-12-13T14:33:48.323Z,54.24
2022-12-13T14:39:00.811Z,54.96
2022-12-13T14:44:27.363Z,55.80
2022-12-13T14:49:48.702Z,56.68
2022-12-13T14:54:58.085Z,56.97
2022-12-13T15:00:21.134Z,57.24
2022-12-13T15:05:51.084Z,57.66
2022-12-13T15:11:08.068Z,57.63
2022-12-13T15:16:26.132Z,57.85
2022-12-13T15:21:28.465Z,57.81
2022-12-13T15:26:32.748Z,58.05
2022-12-13T15:31:35.137Z,58.23
2022-12-13T15:36:39.178Z,58.75
2022-12-13T15:41:49.789Z,58.94
2022-12-13T15:46:53.717Z,59.21
2022-12-13T15:51:58.022Z,59.31
2022-12-13T15:57:00.198Z,59.63
2022-12-13T16:02:06.803Z,59.93
2022-12-13T16:07:22.997Z,60.46
2022-12-13T16:13:01.163Z,60.30
2022-12-13T16:18:19.887Z,60.38
2022-12-13T16:23:29.169Z,60.59
2022-12-13T16:28:31.550Z,60.62
2022-12-13T16:33:34.434Z,60.21
2022-12-13T16:38:37.408Z,60.21
2022-12-13T16:44:02.131Z,59.91
2022-12-13T16:49:18.218Z,59.64
2022-12-13T16:54:24.639Z,59.49
2022-12-13T16:59:28.613Z,58.84
2022-12-13T17:04:30.847Z,58.64
2022-12-13T17:09:35.515Z,58.04
2022-12-13T17:14:37.867Z,58.14
2022-12-13T17:19:40.124Z,57.46
2022-12-13T17:24:42.437Z,56.97
2022-12-13T17:29:44.964Z,56.73
2022-12-13T17:34:47.269Z,56.36
2022-12-13T17:39:50.214Z,56.08
2022-12-13T17:44:52.624Z,55.72
2022-12-13T17:49:54.898Z,55.38
2022-12-13T17:54:57.167Z,55.37
2022-12-13T18:00:00.370Z,55.13
2022-12-13T18:05:02.629Z,54.81
2022-12-13T18:10:05.518Z,54.92
2022-12-13T18:15:08.361Z,54.85
2022-12-13T18:20:12.007Z,54.34
2022-12-13T18:25:14.318Z,54.46
2022-12-13T18:30:16.681Z,54.11
2022-12-13T18:35:19.503Z,54.19
2022-12-13T18:40:21.779Z,54.10
2022-12-13T18:45:24.028Z,54.38
2022-12-13T18:50:26.348Z,54.40
2022-12-13T18:55:28.826Z,54.07
2022-12-13T19:00:31.581Z,55.01
2022-12-13T19:05:34.096Z,55.67
2022-12-13T19:10:36.513Z,56.92
2022-12-13T19:15:42.020Z,56.56
2022-12-13T19:20:48.876Z,57.54
2022-12-13T19:25:51.387Z,57.39
2022-12-13T19:30:53.750Z,57.60
2022-12-13T19:35:55.984Z,58.08
2022-12-13T19:40:58.319Z,58.02
2022-12-13T19:46:01.842Z,58.27
2022-12-13T19:51:07.416Z,58.26
2022-12-13T19:56:14.287Z,58.12
2022-12-13T20:01:17.902Z,57.95
2022-12-13T20:06:23.312Z,58.17
2022-12-13T20:11:25.719Z,58.19
2022-12-13T20:16:31.068Z,57.91
2022-12-13T20:21:33.546Z,57.62
2022-12-13T20:26:36.110Z,58.02
2022-12-13T20:31:40.421Z,58.16
2022-12-13T20:36:43.735Z,58.09
2022-12-13T20:41:45.968Z,58.05
2022-12-13T20:46:48.346Z,58.26
2022-12-13T20:51:51.058Z,58.09
2022-12-13T20:56:53.401Z,58.25
2022-12-13T21:01:55.737Z,58.86
2022-12-13T21:06:58.906Z,58.45
2022-12-13T21:12:01.179Z,59.37
2022-12-13T21:17:05.307Z,59.07
2022-12-13T21:22:07.617Z,59.36
2022-12-13T21:27:09.902Z,59.76
2022-12-13T21:32:12.195Z,59.90
2022-12-13T21:37:14.629Z,59.69
2022-12-13T21:42:16.913Z,59.99
2022-12-13T21:47:19.858Z,59.83
2022-12-13T21:52:24.492Z,60.32
2022-12-13T21:57:45.151Z,59.99
2022-12-13T22:02:47.567Z,60.03
2022-12-13T22:07:52.245Z,59.88
2022-12-13T22:12:54.594Z,60.57
2022-12-13T22:17:58.454Z,60.92
2022-12-13T22:23:00.817Z,60.12
2022-12-13T22:28:03.146Z,59.40
2022-12-13T22:33:05.444Z,59.02
2022-12-13T22:38:07.961Z,59.00
2022-12-13T22:43:10.498Z,58.64
2022-12-13T22:48:12.902Z,58.81
2022-12-13T22:53:15.079Z,58.98
2022-12-13T22:58:17.337Z,59.07
2022-12-13T23:03:19.616Z,59.05
2022-12-13T23:08:22.043Z,59.34
2022-12-13T23:13:24.268Z,58.88
2022-12-13T23:18:26.826Z,59.15
2022-12-13T23:23:30.633Z,59.06
2022-12-13T23:28:32.849Z,59.12
2022-12-13T23:33:35.986Z,58.78
2022-12-13T23:38:38.225Z,59.04
2022-12-13T23:43:41.846Z,58.45
2022-12-13T23:48:44.743Z,58.49
2022-12-13T23:53:47.309Z,58.07
2022-12-13T23:58:52.459Z,58.11
